sensor_id;sensor_type;location;lat;lon;timestamp;temperature;humidity
14775;DHT22;7479;47.042;15.160;2022-09-13T05:45:17;11.70;99.90
14775;DHT22;7479;47.042;15.160;2022-09-13T06:02:58;12.10;99.90
14775;DHT22;7479;47.042;15.160;2022-09-13T06:16:50;12.80;99.90
14775;DHT22;7479;47.042;15.160;2022-09-13T06:21:44;13.10;99.90
14775;DHT22;7479;47.042;15.160;2022-09-13T06:35:09;13.80;99.90
14775;DHT22;7479;47.042;15.160;2022-09-13T06:40:03;13.90;99.90
14775;DHT22;7479;47.042;15.160;2022-09-13T06:54:13;14.30;99.90
14775;DHT22;7479;47.042;15.160;2022-09-13T07:10:37;14.80;99.90
14775;DHT22;7479;47.042;15.160;2022-09-13T07:25:16;15.50;99.90
14775;DHT22;7479;47.042;15.160;2022-09-13T07:39:56;16.20;99.90
14775;DHT22;7479;47.042;15.160;2022-09-13T07:54:16;16.70;99.90
14775;DHT22;7479;47.042;15.160;2022-09-13T07:59:12;16.90;99.90
14775;DHT22;7479;47.042;15.160;2022-09-13T08:13:29;17.60;99.90
14775;DHT22;7479;47.042;15.160;2022-09-13T08:18:24;17.80;99.90
14775;DHT22;7479;47.042;15.160;2022-09-13T08:23:17;18.00;99.90
14775;DHT22;7479;47.042;15.160;2022-09-13T08:28:14;18.30;99.90
14775;DHT22;7479;47.042;15.160;2022-09-13T08:33:11;18.50;99.90
14775;DHT22;7479;47.042;15.160;2022-09-13T08:38:04;18.60;99.90
14775;DHT22;7479;47.042;15.160;2022-09-13T08:51:46;19.20;99.90
14775;DHT22;7479;47.042;15.160;2022-09-13T08:56:43;19.40;99.90
14775;DHT22;7479;47.042;15.160;2022-09-13T09:01:47;19.60;99.90
14775;DHT22;7479;47.042;15.160;2022-09-13T09:06:44;19.80;99.90
14775;DHT22;7479;47.042;15.160;2022-09-13T09:11:43;20.10;99.90
14775;DHT22;7479;47.042;15.160;2022-09-13T09:16:43;20.30;99.90
14775;DHT22;7479;47.042;15.160;2022-09-13T09:21:39;20.60;99.90
14775;DHT22;7479;47.042;15.160;2022-09-13T09:26:34;20.80;99.90
14775;DHT22;7479;47.042;15.160;2022-09-13T09:31:36;21.10;99.90
14775;DHT22;7479;47.042;15.160;2022-09-13T09:36:38;21.30;99.90
14775;DHT22;7479;47.042;15.160;2022-09-13T09:41:35;21.50;99.90
14775;DHT22;7479;47.042;15.160;2022-09-13T09:46:32;21.50;99.90
14775;DHT22;7479;47.042;15.160;2022-09-13T09:51:27;21.80;99.90
14775;DHT22;7479;47.042;15.160;2022-09-13T09:56:24;22.00;99.90
14775;DHT22;7479;47.042;15.160;2022-09-13T10:01:22;22.20;99.90
14775;DHT22;7479;47.042;15.160;2022-09-13T10:06:19;22.40;99.90
14775;DHT22;7479;47.042;15.160;2022-09-13T10:11:14;22.60;99.90
14775;DHT22;7479;47.042;15.160;2022-09-13T10:16:24;22.90;99.90
14775;DHT22;7479;47.042;15.160;2022-09-13T10:21:23;23.30;99.90
14775;DHT22;7479;47.042;15.160;2022-09-13T10:26:18;23.30;99.10
14775;DHT22;7479;47.042;15.160;2022-09-13T10:31:14;23.90;99.50
14775;DHT22;7479;47.042;15.160;2022-09-13T10:36:16;24.40;97.90
14775;DHT22;7479;47.042;15.160;2022-09-13T10:41:33;25.00;97.00
14775;DHT22;7479;47.042;15.160;2022-09-13T10:46:32;25.40;96.20
14775;DHT22;7479;47.042;15.160;2022-09-13T10:51:35;25.60;94.90
14775;DHT22;7479;47.042;15.160;2022-09-13T10:56:29;25.80;95.40
14775;DHT22;7479;47.042;15.160;2022-09-13T11:01:36;25.90;95.00
14775;DHT22;7479;47.042;15.160;2022-09-13T11:06:38;25.70;94.90
14775;DHT22;7479;47.042;15.160;2022-09-13T11:11:38;26.20;94.60
14775;DHT22;7479;47.042;15.160;2022-09-13T11:16:43;26.70;93.10
14775;DHT22;7479;47.042;15.160;2022-09-13T11:22:02;27.10;92.20
14775;DHT22;7479;47.042;15.160;2022-09-13T11:27:02;27.00;92.30
14775;DHT22;7479;47.042;15.160;2022-09-13T11:32:06;27.10;92.10
14775;DHT22;7479;47.042;15.160;2022-09-13T11:37:21;26.70;92.40
14775;DHT22;7479;47.042;15.160;2022-09-13T11:42:27;26.50;92.40
14775;DHT22;7479;47.042;15.160;2022-09-13T11:47:32;26.20;93.00
14775;DHT22;7479;47.042;15.160;2022-09-13T11:52:40;26.00;93.20
14775;DHT22;7479;47.042;15.160;2022-09-13T11:57:41;26.00;92.90
14775;DHT22;7479;47.042;15.160;2022-09-13T12:02:39;26.00;93.30
14775;DHT22;7479;47.042;15.160;2022-09-13T12:07:39;26.40;92.50
14775;DHT22;7479;47.042;15.160;2022-09-13T12:12:35;26.90;92.00
14775;DHT22;7479;47.042;15.160;2022-09-13T12:17:35;27.30;91.40
14775;DHT22;7479;47.042;15.160;2022-09-13T12:22:32;27.40;90.90
14775;DHT22;7479;47.042;15.160;2022-09-13T12:27:36;27.30;91.00
14775;DHT22;7479;47.042;15.160;2022-09-13T12:32:31;27.20;90.30
14775;DHT22;7479;47.042;15.160;2022-09-13T12:43:25;26.80;90.40
14775;DHT22;7479;47.042;15.160;2022-09-13T13:04:52;26.40;90.70
14775;DHT22;7479;47.042;15.160;2022-09-13T13:09:50;26.20;90.90
14775;DHT22;7479;47.042;15.160;2022-09-13T13:14:49;25.80;92.50
14775;DHT22;7479;47.042;15.160;2022-09-13T13:19:44;25.80;92.30
14775;DHT22;7479;47.042;15.160;2022-09-13T13:24:45;25.80;92.60
14775;DHT22;7479;47.042;15.160;2022-09-13T13:29:39;25.70;92.80
14775;DHT22;7479;47.042;15.160;2022-09-13T13:34:40;25.60;93.30
14775;DHT22;7479;47.042;15.160;2022-09-13T13:39:36;25.40;93.40
14775;DHT22;7479;47.042;15.160;2022-09-13T13:45:12;25.20;93.00
14775;DHT22;7479;47.042;15.160;2022-09-13T13:50:13;25.10;93.00
14775;DHT22;7479;47.042;15.160;2022-09-13T14:00:33;25.10;93.50
14775;DHT22;7479;47.042;15.160;2022-09-13T14:05:32;25.10;92.90
14775;DHT22;7479;47.042;15.160;2022-09-13T14:10:35;25.60;93.50
14775;DHT22;7479;47.042;15.160;2022-09-13T14:15:44;27.00;91.70
14775;DHT22;7479;47.042;15.160;2022-09-13T14:21:00;28.30;90.10
14775;DHT22;7479;47.042;15.160;2022-09-13T14:25:55;29.60;85.00
14775;DHT22;7479;47.042;15.160;2022-09-13T14:30:52;30.00;80.80
14775;DHT22;7479;47.042;15.160;2022-09-13T14:35:46;30.80;80.00
14775;DHT22;7479;47.042;15.160;2022-09-13T14:40:51;31.50;76.70
14775;DHT22;7479;47.042;15.160;2022-09-13T14:45:46;33.00;72.90
14775;DHT22;7479;47.042;15.160;2022-09-13T14:50:47;33.20;69.90
14775;DHT22;7479;47.042;15.160;2022-09-13T14:55:44;30.90;71.90
14775;DHT22;7479;47.042;15.160;2022-09-13T15:00:48;29.70;76.60
14775;DHT22;7479;47.042;15.160;2022-09-13T15:05:50;33.00;72.00
14775;DHT22;7479;47.042;15.160;2022-09-13T15:10:44;32.40;67.70
14775;DHT22;7479;47.042;15.160;2022-09-13T15:15:38;31.30;72.10
14775;DHT22;7479;47.042;15.160;2022-09-13T15:20:47;33.80;66.70
14775;DHT22;7479;47.042;15.160;2022-09-13T15:25:47;30.70;70.20
14775;DHT22;7479;47.042;15.160;2022-09-13T15:30:43;28.50;76.40
14775;DHT22;7479;47.042;15.160;2022-09-13T15:35:38;27.40;80.70
14775;DHT22;7479;47.042;15.160;2022-09-13T15:40:42;26.60;82.70
14775;DHT22;7479;47.042;15.160;2022-09-13T15:45:36;26.30;85.30
14775;DHT22;7479;47.042;15.160;2022-09-13T15:50:31;26.10;88.10
14775;DHT22;7479;47.042;15.160;2022-09-13T15:55:28;26.30;90.10
14775;DHT22;7479;47.042;15.160;2022-09-13T16:00:25;27.60;87.10
14775;DHT22;7479;47.042;15.160;2022-09-13T16:05:19;32.40;75.30
14775;DHT22;7479;47.042;15.160;2022-09-13T16:10:15;32.70;69.60
14775;DHT22;7479;47.042;15.160;2022-09-13T16:15:09;29.70;76.00
14775;DHT22;7479;47.042;15.160;2022-09-13T16:20:06;27.60;81.90
14775;DHT22;7479;47.042;15.160;2022-09-13T16:25:00;26.40;86.20
14775;DHT22;7479;47.042;15.160;2022-09-13T16:29:54;25.80;88.80
14775;DHT22;7479;47.042;15.160;2022-09-13T16:34:48;25.40;89.40
14775;DHT22;7479;47.042;15.160;2022-09-13T16:39:44;25.10;90.70
14775;DHT22;7479;47.042;15.160;2022-09-13T16:44:38;24.80;91.60
14775;DHT22;7479;47.042;15.160;2022-09-13T16:49:32;24.50;92.60
14775;DHT22;7479;47.042;15.160;2022-09-13T16:54:25;24.20;94.60
14775;DHT22;7479;47.042;15.160;2022-09-13T16:59:22;24.00;95.60
14775;DHT22;7479;47.042;15.160;2022-09-13T17:04:16;23.80;96.30
14775;DHT22;7479;47.042;15.160;2022-09-13T17:09:10;23.50;96.70
14775;DHT22;7479;47.042;15.160;2022-09-13T17:14:05;23.20;97.10
14775;DHT22;7479;47.042;15.160;2022-09-13T17:19:04;22.90;97.90
14775;DHT22;7479;47.042;15.160;2022-09-13T17:23:57;22.60;98.50
14775;DHT22;7479;47.042;15.160;2022-09-13T17:28:51;22.30;99.40
14775;DHT22;7479;47.042;15.160;2022-09-13T17:33:45;22.10;99.90
14775;DHT22;7479;47.042;15.160;2022-09-13T17:38:41;21.90;99.90
14775;DHT22;7479;47.042;15.160;2022-09-13T17:43:35;21.70;99.90
14775;DHT22;7479;47.042;15.160;2022-09-13T17:48:29;21.40;99.90
14775;DHT22;7479;47.042;15.160;2022-09-13T17:53:23;21.20;99.90
14775;DHT22;7479;47.042;15.160;2022-09-13T17:58:19;21.00;99.90
14775;DHT22;7479;47.042;15.160;2022-09-13T18:03:13;21.00;99.90
14775;DHT22;7479;47.042;15.160;2022-09-13T18:08:07;20.90;99.90
14775;DHT22;7479;47.042;15.160;2022-09-13T18:13:01;20.80;99.90
14775;DHT22;7479;47.042;15.160;2022-09-13T18:17:56;20.70;99.90
14775;DHT22;7479;47.042;15.160;2022-09-13T18:22:50;20.60;99.90
14775;DHT22;7479;47.042;15.160;2022-09-13T18:27:44;20.60;99.90
14775;DHT22;7479;47.042;15.160;2022-09-13T18:32:37;20.50;99.90
14775;DHT22;7479;47.042;15.160;2022-09-13T18:37:34;20.40;99.90
14775;DHT22;7479;47.042;15.160;2022-09-13T18:42:28;20.30;99.90
14775;DHT22;7479;47.042;15.160;2022-09-13T18:47:25;20.20;99.90
14775;DHT22;7479;47.042;15.160;2022-09-13T18:52:20;20.00;99.90
14775;DHT22;7479;47.042;15.160;2022-09-13T18:57:15;19.80;99.90
14775;DHT22;7479;47.042;15.160;2022-09-13T19:02:09;19.80;99.90
14775;DHT22;7479;47.042;15.160;2022-09-13T19:07:04;19.50;99.90
14775;DHT22;7479;47.042;15.160;2022-09-13T19:11:59;19.40;99.90
14775;DHT22;7479;47.042;15.160;2022-09-13T19:16:57;19.30;99.90
14775;DHT22;7479;47.042;15.160;2022-09-13T19:21:52;19.30;99.90
14775;DHT22;7479;47.042;15.160;2022-09-13T19:26:47;19.30;99.90
14775;DHT22;7479;47.042;15.160;2022-09-13T19:31:43;19.20;99.90
14775;DHT22;7479;47.042;15.160;2022-09-13T19:36:41;19.20;99.90
14775;DHT22;7479;47.042;15.160;2022-09-13T19:41:36;19.10;99.90
14775;DHT22;7479;47.042;15.160;2022-09-13T19:46:32;19.00;99.90
